Time;durP1;ratioP1;P1;durP2;ratioP2;P2;SDS_P1;SDS_P2;PMS_P1;PMS_P2;Temp;Humidity;BMP_temperature;BMP_pressure;BME280_temperature;BME280_humidity;BME280_pressure;Samples;Min_cycle;Max_cycle;Signal;HPM_P1;HPM_P2
2023/12/05 00:00:17;;;;;;;3.50;2.63;;;;;;;7.36;56.52;99476.16;672507;29;1184;-86
2023/12/05 00:00:38;;;;;;;3.80;2.83;;;;;;;7.28;56.73;99463.03;669692;29;1022;-86
2023/12/05 00:00:58;;;;;;;4.10;3.00;;;;;;;7.30;55.98;99466.53;672251;29;762;-86
2023/12/05 00:01:19;;;;;;;3.30;2.83;;;;;;;7.32;56.50;99464.88;671272;29;1566;-87
2023/12/05 00:01:40;;;;;;;3.25;2.72;;;;;;;7.36;56.63;99466.66;672264;29;1203;-86
2023/12/05 00:02:00;;;;;;;7.00;2.92;;;;;;;7.37;56.57;99476.19;673105;29;1167;-86
2023/12/05 00:02:21;;;;;;;6.80;2.80;;;;;;;7.32;56.53;99467.47;666612;29;1543;-86
2023/12/05 00:02:42;;;;;;;6.45;2.80;;;;;;;7.34;56.76;99468.34;669556;29;1260;-86
2023/12/05 00:03:03;;;;;;;3.30;3.00;;;;;;;7.30;56.54;99456.16;669346;29;1483;-86
2023/12/05 00:03:24;;;;;;;3.75;3.20;;;;;;;7.39;56.61;99477.09;671608;29;1174;-86
2023/12/05 00:03:45;;;;;;;4.30;3.40;;;;;;;7.24;56.77;99451.72;674774;29;855;-86
2023/12/05 00:04:05;;;;;;;4.20;3.10;;;;;;;7.31;56.40;99463.09;674564;29;1572;-86
2023/12/05 00:04:26;;;;;;;3.65;3.03;;;;;;;7.32;56.30;99466.56;674420;29;1415;-87
2023/12/05 00:04:47;;;;;;;3.60;2.90;;;;;;;7.29;56.65;99459.59;669575;29;1183;-86
2023/12/05 00:05:09;;;;;;;3.87;3.00;;;;;;;7.31;56.54;99465.69;669800;29;1503;-86
2023/12/05 00:05:30;;;;;;;3.97;2.97;;;;;;;7.31;56.45;99457.03;669157;29;1677;-87
2023/12/05 00:05:51;;;;;;;4.13;3.10;;;;;;;7.38;56.43;99467.56;669942;29;1201;-86
2023/12/05 00:06:12;;;;;;;4.13;3.00;;;;;;;7.33;56.56;99461.41;672053;29;1529;-87
2023/12/05 00:06:32;;;;;;;4.15;3.15;;;;;;;7.38;56.59;99462.38;672125;29;979;-86
2023/12/05 00:06:53;;;;;;;4.47;3.30;;;;;;;7.36;57.00;99458.88;669442;29;1316;-86
2023/12/05 00:07:14;;;;;;;3.73;3.00;;;;;;;7.42;56.73;99457.25;669016;29;1636;-86
2023/12/05 00:07:34;;;;;;;3.50;2.95;;;;;;;7.38;56.61;99453.72;666408;29;1249;-86
2023/12/05 00:07:55;;;;;;;3.00;2.53;;;;;;;7.46;56.49;99467.72;669562;29;1623;-86
2023/12/05 00:08:17;;;;;;;3.08;2.78;;;;;;;7.37;56.18;99460.63;671062;29;1519;-87
2023/12/05 00:08:38;;;;;;;3.55;2.78;;;;;;;7.44;56.44;99468.53;668002;29;1186;-87
2023/12/05 00:09:00;;;;;;;4.15;3.20;;;;;;;7.43;56.21;99466.78;669533;29;1543;-86
2023/12/05 00:09:20;;;;;;;4.70;3.40;;;;;;;7.43;56.21;99461.59;676431;29;1517;-87
2023/12/05 00:09:41;;;;;;;4.28;3.47;;;;;;;7.42;56.22;99458.13;674863;29;794;-87
2023/12/05 00:10:02;;;;;;;4.30;3.50;;;;;;;7.39;56.61;99466.72;673518;29;1186;-86
2023/12/05 00:10:22;;;;;;;3.63;3.20;;;;;;;7.38;56.67;99449.38;674452;29;1693;-86
2023/12/05 00:10:43;;;;;;;3.70;3.00;;;;;;;7.47;56.55;99468.59;672044;29;1182;-86
2023/12/05 00:11:06;;;;;;;2.80;2.60;;;;;;;7.40;56.22;99452.03;676862;29;1537;-86
2023/12/05 00:11:27;;;;;;;2.70;2.50;;;;;;;7.47;56.43;99459.09;672111;29;1470;-86
2023/12/05 00:11:48;;;;;;;2.80;2.60;;;;;;;7.52;56.21;99459.16;672142;29;1427;-86
2023/12/05 00:12:09;;;;;;;2.90;2.70;;;;;;;7.47;56.53;99453.00;674998;29;1584;-86
2023/12/05 00:12:30;;;;;;;3.08;2.88;;;;;;;7.53;56.45;99464.41;674662;29;1112;-86
2023/12/05 00:12:50;;;;;;;3.30;3.00;;;;;;;7.58;56.39;99463.59;674622;29;1052;-86
2023/12/05 00:13:11;;;;;;;3.50;3.03;;;;;;;7.53;56.10;99460.91;673352;29;1550;-87
2023/12/05 00:13:32;;;;;;;3.85;2.97;;;;;;;7.56;56.45;99461.00;671917;29;1071;-87
2023/12/05 00:13:53;;;;;;;3.50;2.88;;;;;;;7.55;56.36;99456.63;674388;29;1105;-86
2023/12/05 00:14:13;;;;;;;3.07;2.73;;;;;;;7.63;55.94;99472.38;671846;29;1569;-87
2023/12/05 00:14:34;;;;;;;3.33;2.80;;;;;;;7.58;56.14;99468.78;669546;29;1038;-86
2023/12/05 00:14:55;;;;;;;4.50;3.03;;;;;;;7.48;55.75;99449.56;667011;29;1966;-86
2023/12/05 00:15:16;;;;;;;4.38;2.95;;;;;;;7.50;56.29;99447.91;665279;29;1547;-87
2023/12/05 00:15:37;;;;;;;4.15;2.90;;;;;;;7.59;56.06;99462.75;669595;29;994;-87
2023/12/05 00:15:57;;;;;;;5.25;2.90;;;;;;;7.56;56.42;99457.50;667068;29;1164;-86
2023/12/05 00:16:18;;;;;;;5.10;2.80;;;;;;;7.56;56.21;99455.81;671115;29;1488;-86
2023/12/05 00:16:41;;;;;;;4.63;2.70;;;;;;;7.48;56.20;99444.38;668029;29;821;-86
2023/12/05 00:17:02;;;;;;;2.95;2.75;;;;;;;7.63;56.13;99465.44;666974;29;1241;-86
2023/12/05 00:17:22;;;;;;;3.57;3.03;;;;;;;7.59;55.92;99453.25;669017;29;1489;-86
2023/12/05 00:17:43;;;;;;;4.10;3.15;;;;;;;7.63;55.94;99449.84;668960;29;1280;-86
2023/12/05 00:18:07;;;;;;;4.85;3.08;;;;;;;7.62;55.96;99462.81;669310;29;1499;-86
2023/12/05 00:18:27;;;;;;;4.75;3.30;;;;;;;7.59;56.42;99455.84;672015;29;1217;-86
2023/12/05 00:18:50;;;;;;;5.20;3.40;;;;;;;7.57;56.15;99449.75;669605;29;1730;-87
2023/12/05 00:19:10;;;;;;;3.70;2.90;;;;;;;7.59;56.23;99453.25;668416;29;1464;-87
2023/12/05 00:19:31;;;;;;;2.90;2.60;;;;;;;7.60;55.95;99449.81;672082;29;961;-86
2023/12/05 00:19:52;;;;;;;3.35;2.80;;;;;;;7.62;56.17;99458.50;669487;29;1185;-86
2023/12/05 00:20:12;;;;;;;3.90;2.90;;;;;;;7.60;56.17;99449.81;669213;29;1456;-86
2023/12/05 00:20:33;;;;;;;3.58;2.70;;;;;;;7.65;55.88;99460.28;674498;29;1007;-87
2023/12/05 00:20:54;;;;;;;3.17;2.60;;;;;;;7.62;55.78;99452.44;669828;29;1526;-86
2023/12/05 00:21:14;;;;;;;3.72;2.70;;;;;;;7.64;55.76;99448.16;666569;29;1471;-86
2023/12/05 00:21:35;;;;;;;5.68;3.00;;;;;;;7.71;55.81;99467.31;667068;29;990;-86
2023/12/05 00:21:58;;;;;;;5.20;2.90;;;;;;;7.60;56.33;99449.81;669515;29;1142;-86
2023/12/05 00:22:19;;;;;;;3.75;2.70;;;;;;;7.58;55.73;99446.31;675695;29;1593;-86
2023/12/05 00:22:39;;;;;;;3.00;2.70;;;;;;;7.60;56.14;99455.00;674865;29;765;-87
2023/12/05 00:23:00;;;;;;;3.93;2.70;;;;;;;7.62;56.25;99449.84;669459;29;1378;-86
2023/12/05 00:23:21;;;;;;;4.47;2.85;;;;;;;7.57;56.15;99448.88;661827;29;1512;-85
2023/12/05 00:23:42;;;;;;;3.80;2.60;;;;;;;7.64;56.47;99451.63;661948;29;1583;-87
2023/12/05 00:24:03;;;;;;;3.00;2.60;;;;;;;7.60;55.90;99446.31;666848;29;1344;-87
2023/12/05 00:24:24;;;;;;;3.10;2.60;;;;;;;7.58;56.03;99441.13;669290;29;1385;-86
2023/12/05 00:24:44;;;;;;;3.20;2.60;;;;;;;7.70;56.49;99462.97;667138;29;1266;-86
2023/12/05 00:25:05;;;;;;;3.58;2.80;;;;;;;7.62;56.48;99445.50;668995;29;1605;-86
2023/12/05 00:25:26;;;;;;;3.70;3.10;;;;;;;7.62;55.85;99448.09;669535;29;1293;-86
2023/12/05 00:25:47;;;;;;;4.47;3.33;;;;;;;7.63;56.54;99460.25;667141;29;826;-86
2023/12/05 00:26:07;;;;;;;4.40;3.40;;;;;;;7.56;56.46;99453.22;669305;29;1503;-86
2023/12/05 00:26:28;;;;;;;4.50;3.33;;;;;;;7.57;56.45;99457.56;669522;29;1177;-86
2023/12/05 00:26:49;;;;;;;3.42;2.95;;;;;;;7.57;56.48;99460.16;671371;29;1433;-87
2023/12/05 00:27:11;;;;;;;3.00;2.55;;;;;;;7.48;56.73;99444.38;668227;29;1581;-86
2023/12/05 00:27:31;;;;;;;3.44;2.90;;;;;;;7.53;56.41;99453.13;668689;29;1274;-86
2023/12/05 00:27:52;;;;;;;4.63;3.10;;;;;;;7.54;56.53;99449.69;672063;29;1373;-87
2023/12/05 00:28:13;;;;;;;4.95;3.33;;;;;;;7.48;56.79;99444.38;668979;29;1496;-87
2023/12/05 00:28:33;;;;;;;4.05;2.83;;;;;;;7.56;56.48;99453.22;671504;29;1192;-87
2023/12/05 00:28:54;;;;;;;2.90;2.60;;;;;;;7.55;56.58;99456.63;669622;29;1084;-86
2023/12/05 00:29:15;;;;;;;3.00;2.70;;;;;;;7.54;56.66;99449.69;670306;29;1484;-86
2023/12/05 00:29:37;;;;;;;3.55;3.25;;;;;;;7.54;56.45;99455.75;666818;29;1686;-86
2023/12/05 00:29:58;;;;;;;3.78;3.38;;;;;;;7.58;56.44;99448.91;667044;29;1373;-86
2023/12/05 00:30:19;;;;;;;4.32;3.28;;;;;;;7.52;56.76;99443.59;665912;29;1511;-86
2023/12/05 00:30:40;;;;;;;4.72;3.30;;;;;;;7.56;56.55;99453.22;666979;29;1092;-86
2023/12/05 00:31:00;;;;;;;5.07;3.50;;;;;;;7.54;56.73;99452.28;669518;29;1188;-87
2023/12/05 00:31:21;;;;;;;4.30;3.27;;;;;;;7.53;56.59;99453.13;671569;29;1480;-86
2023/12/05 00:31:42;;;;;;;3.83;3.00;;;;;;;7.49;56.28;99438.38;669534;29;811;-87
2023/12/05 00:32:06;;;;;;;3.70;2.95;;;;;;;7.52;56.37;99444.50;666711;29;1745;-86
2023/12/05 00:32:27;;;;;;;4.07;3.03;;;;;;;7.53;56.25;99445.34;669486;29;1318;-87
2023/12/05 00:32:48;;;;;;;4.18;3.00;;;;;;;7.51;56.50;99447.03;671855;29;1512;-87
2023/12/05 00:33:09;;;;;;;4.03;3.08;;;;;;;7.56;56.47;99452.31;672425;29;1468;-87
2023/12/05 00:33:30;;;;;;;3.30;2.80;;;;;;;7.49;56.75;99436.63;674697;29;1128;-86
2023/12/05 00:33:50;;;;;;;3.28;2.80;;;;;;;7.57;56.94;99449.75;674722;29;1160;-87
2023/12/05 00:34:11;;;;;;;3.38;2.70;;;;;;;7.57;56.65;99452.34;667819;29;1574;-87
2023/12/05 00:34:32;;;;;;;3.57;2.80;;;;;;;7.56;56.66;99444.53;666695;29;1362;-87
2023/12/05 00:34:52;;;;;;;3.77;3.00;;;;;;;7.53;56.65;99453.13;671980;29;1919;-87
2023/12/05 00:35:14;;;;;;;3.40;2.90;;;;;;;7.47;56.72;99437.44;671973;29;1835;-87
2023/12/05 00:35:35;;;;;;;3.47;2.75;;;;;;;7.52;56.75;99451.38;672073;29;985;-87
2023/12/05 00:35:55;;;;;;;3.30;2.70;;;;;;;7.54;56.56;99457.47;673387;29;1148;-86
2023/12/05 00:36:19;;;;;;;3.03;2.70;;;;;;;7.53;56.87;99447.94;667874;29;1777;-87
2023/12/05 00:36:40;;;;;;;3.28;2.97;;;;;;;7.61;56.42;99461.09;666939;29;1318;-87
2023/12/05 00:37:00;;;;;;;3.78;3.10;;;;;;;7.54;57.01;99447.97;669411;29;1121;-87
2023/12/05 00:37:21;;;;;;;4.70;3.13;;;;;;;7.54;56.71;99449.69;674196;29;1546;-86
2023/12/05 00:37:42;;;;;;;5.00;3.20;;;;;;;7.54;56.50;99450.56;670242;29;886;-87
2023/12/05 00:38:03;;;;;;;5.18;3.22;;;;;;;7.51;56.85;99444.44;670555;29;1340;-86
2023/12/05 00:38:23;;;;;;;5.25;3.17;;;;;;;7.48;56.57;99439.19;666682;29;1576;-87
2023/12/05 00:38:44;;;;;;;5.28;3.22;;;;;;;7.55;56.92;99451.44;669315;29;1499;-86
2023/12/05 00:39:05;;;;;;;4.60;3.42;;;;;;;7.54;56.75;99447.97;666656;29;1591;-86
2023/12/05 00:39:25;;;;;;;4.00;3.40;;;;;;;7.49;56.43;99441.81;666869;29;959;-86
2023/12/05 00:39:46;;;;;;;3.50;3.17;;;;;;;7.52;56.82;99441.00;667001;29;787;-87
2023/12/05 00:40:07;;;;;;;3.10;2.80;;;;;;;7.51;57.16;99442.72;666929;29;1494;-86
2023/12/05 00:40:29;;;;;;;3.40;2.88;;;;;;;7.51;56.95;99439.25;674682;29;1125;-86
2023/12/05 00:40:50;;;;;;;3.28;2.70;;;;;;;7.52;56.92;99436.69;674030;29;919;-86
2023/12/05 00:41:11;;;;;;;3.25;2.88;;;;;;;7.54;56.88;99441.91;670146;29;1479;-86
2023/12/05 00:41:31;;;;;;;3.53;3.00;;;;;;;7.57;56.86;99444.56;669446;29;986;-86
2023/12/05 00:41:52;;;;;;;3.92;3.03;;;;;;;7.55;56.77;99438.44;671971;29;1330;-86
2023/12/05 00:42:13;;;;;;;3.72;2.70;;;;;;;7.59;56.75;99453.25;671439;29;1254;-87
2023/12/05 00:42:34;;;;;;;3.47;2.65;;;;;;;7.53;56.72;99443.63;669974;29;1194;-86
2023/12/05 00:42:58;;;;;;;3.60;2.80;;;;;;;7.54;57.11;99442.78;666690;29;1910;-86
2023/12/05 00:43:19;;;;;;;3.85;2.90;;;;;;;7.52;56.67;99435.81;666791;29;1832;-86
2023/12/05 00:43:39;;;;;;;3.97;2.90;;;;;;;7.57;56.58;99439.38;672174;29;848;-86
2023/12/05 00:44:00;;;;;;;4.22;3.10;;;;;;;7.59;57.01;99441.97;674599;29;1690;-87
2023/12/05 00:44:21;;;;;;;4.53;3.03;;;;;;;7.59;56.84;99436.78;674168;29;1462;-87
2023/12/05 00:44:42;;;;;;;4.30;3.00;;;;;;;7.56;56.67;99436.75;669081;29;1148;-87
2023/12/05 00:45:03;;;;;;;3.92;2.70;;;;;;;7.60;56.78;99444.63;664263;29;1220;-86
2023/12/05 00:45:24;;;;;;;3.17;2.80;;;;;;;7.53;57.13;99437.56;666177;29;1479;-87
2023/12/05 00:45:45;;;;;;;3.28;2.97;;;;;;;7.65;56.68;99450.78;669301;29;1353;-85
2023/12/05 00:46:05;;;;;;;3.40;3.10;;;;;;;7.56;56.57;99437.63;666768;29;1579;-85
2023/12/05 00:46:27;;;;;;;3.50;3.10;;;;;;;7.56;56.43;99441.94;671641;29;1436;-87
2023/12/05 00:46:48;;;;;;;3.20;2.85;;;;;;;7.48;56.83;99423.59;679848;29;1246;-87
2023/12/05 00:47:08;;;;;;;3.13;2.63;;;;;;;7.52;57.10;99439.28;676482;29;1477;-86
2023/12/05 00:47:29;;;;;;;3.50;2.58;;;;;;;7.58;56.80;99441.13;671445;29;1325;-87
2023/12/05 00:47:51;;;;;;;3.46;2.60;;;;;;;7.57;56.88;99439.38;666906;29;1561;-87
2023/12/05 00:48:12;;;;;;;3.60;2.60;;;;;;;7.59;56.95;99448.06;667424;29;1440;-86
2023/12/05 00:48:32;;;;;;;3.43;2.70;;;;;;;7.53;56.51;99440.16;666538;29;1185;-86
2023/12/05 00:48:53;;;;;;;4.07;2.90;;;;;;;7.52;56.83;99430.63;666752;29;828;-86
2023/12/05 00:49:14;;;;;;;4.50;2.90;;;;;;;7.53;56.79;99434.97;668049;29;1108;-86
2023/12/05 00:49:35;;;;;;;3.83;2.70;;;;;;;7.58;56.40;99440.25;671581;29;1328;-86
2023/12/05 00:49:56;;;;;;;3.10;2.60;;;;;;;7.57;57.01;99438.50;669624;29;1499;-87
2023/12/05 00:50:17;;;;;;;3.00;2.70;;;;;;;7.53;56.91;99437.56;666548;29;1819;-87
2023/12/05 00:50:38;;;;;;;3.20;2.90;;;;;;;7.50;56.60;99427.97;666973;29;1192;-87
2023/12/05 00:50:59;;;;;;;3.53;2.80;;;;;;;7.62;56.88;99462.81;666958;29;1611;-86
2023/12/05 00:51:20;;;;;;;3.22;2.70;;;;;;;7.59;57.11;99439.38;671072;29;1648;-87
2023/12/05 00:51:41;;;;;;;3.57;2.80;;;;;;;7.60;57.18;99447.22;670158;29;1129;-86
2023/12/05 00:52:01;;;;;;;3.47;2.80;;;;;;;7.56;56.87;99442.81;669547;29;1093;-87
2023/12/05 00:52:22;;;;;;;3.70;2.83;;;;;;;7.59;56.95;99440.28;671932;29;1587;-86
2023/12/05 00:52:43;;;;;;;3.72;2.90;;;;;;;7.62;57.03;99442.91;674651;29;799;-86
2023/12/05 00:53:04;;;;;;;4.00;3.00;;;;;;;7.57;56.91;99436.78;674665;29;1664;-86
2023/12/05 00:53:25;;;;;;;3.28;2.78;;;;;;;7.57;56.83;99430.69;669301;29;901;-87
2023/12/05 00:53:45;;;;;;;2.85;2.42;;;;;;;7.58;56.87;99435.94;664686;29;1071;-86
2023/12/05 00:54:06;;;;;;;2.90;2.47;;;;;;;7.60;56.99;99439.41;666424;29;1499;-86
2023/12/05 00:54:27;;;;;;;3.20;2.70;;;;;;;7.62;57.02;99437.72;664245;29;1191;-86
2023/12/05 00:54:47;;;;;;;3.28;2.75;;;;;;;7.56;56.58;99437.63;666887;29;1974;-87
2023/12/05 00:55:08;;;;;;;3.20;2.70;;;;;;;7.60;56.86;99442.03;664587;29;1504;-86
2023/12/05 00:55:29;;;;;;;3.15;2.70;;;;;;;7.53;56.64;99438.44;665210;29;1472;-85
2023/12/05 00:55:50;;;;;;;3.72;3.08;;;;;;;7.57;56.89;99443.69;669551;29;809;-87
2023/12/05 00:56:11;;;;;;;3.60;2.90;;;;;;;7.53;56.93;99438.44;669077;29;1479;-86
2023/12/05 00:56:32;;;;;;;4.25;3.00;;;;;;;7.56;57.15;99437.63;669253;29;1252;-87
2023/12/05 00:56:53;;;;;;;3.10;2.60;;;;;;;7.50;57.11;99432.31;668716;29;1006;-87
2023/12/05 00:57:14;;;;;;;3.20;2.80;;;;;;;7.52;57.08;99435.81;669065;29;1582;-86
2023/12/05 00:57:35;;;;;;;2.97;2.67;;;;;;;7.52;56.79;99435.81;671102;29;1347;-86
2023/12/05 00:57:56;;;;;;;3.20;2.50;;;;;;;7.61;56.83;99445.50;667122;29;1205;-86
2023/12/05 00:58:17;;;;;;;3.55;2.58;;;;;;;7.63;56.95;99447.25;670793;29;1440;-87
2023/12/05 00:58:37;;;;;;;3.33;2.70;;;;;;;7.53;57.25;99430.66;669122;29;1352;-86
2023/12/05 00:59:00;;;;;;;2.92;2.63;;;;;;;7.64;57.28;99440.34;669441;29;1250;-86
2023/12/05 00:59:21;;;;;;;2.63;2.42;;;;;;;7.66;57.01;99452.53;671283;29;1593;-87
2023/12/05 00:59:42;;;;;;;2.63;2.35;;;;;;;7.61;57.09;99441.16;671280;29;1472;-86
2023/12/05 01:00:09;;;;;;;2.97;2.50;;;;;;;7.67;57.24;99449.09;671736;29;1243;-87
2023/12/05 01:00:30;;;;;;;3.47;2.70;;;;;;;7.59;56.89;99435.09;672897;29;1411;-87
2023/12/05 01:00:51;;;;;;;4.30;3.10;;;;;;;7.59;57.08;99436.78;672233;29;866;-86
2023/12/05 01:01:12;;;;;;;4.85;3.20;;;;;;;7.64;57.00;99440.34;670908;29;1601;-87
2023/12/05 01:01:33;;;;;;;4.90;3.28;;;;;;;7.57;56.96;99441.97;671982;29;1229;-87
2023/12/05 01:01:54;;;;;;;3.93;2.87;;;;;;;7.56;56.82;99431.56;671677;29;742;-86
2023/12/05 01:02:14;;;;;;;5.50;2.60;;;;;;;7.64;56.98;99440.34;667578;29;1630;-86
2023/12/05 01:02:35;;;;;;;5.68;2.70;;;;;;;7.61;56.84;99430.78;669378;29;1272;-87
2023/12/05 01:02:57;;;;;;;5.28;2.70;;;;;;;7.59;56.72;99440.28;667067;29;802;-86
2023/12/05 01:03:18;;;;;;;3.70;2.70;;;;;;;7.64;56.96;99446.44;667986;29;1539;-87
2023/12/05 01:03:39;;;;;;;3.40;2.63;;;;;;;7.64;56.96;99438.66;669505;29;749;-86
2023/12/05 01:04:00;;;;;;;3.42;2.70;;;;;;;7.58;57.13;99432.44;669569;29;1170;-86
2023/12/05 01:04:20;;;;;;;3.63;2.75;;;;;;;7.68;57.13;99448.22;671230;29;1567;-86
2023/12/05 01:04:41;;;;;;;3.20;2.73;;;;;;;7.60;57.11;99439.41;667029;29;1555;-86
2023/12/05 01:05:02;;;;;;;3.15;2.75;;;;;;;7.63;57.03;99436.88;671960;29;1122;-87
2023/12/05 01:05:23;;;;;;;3.33;2.75;;;;;;;7.67;56.97;99453.38;666985;29;1493;-86
2023/12/05 01:05:44;;;;;;;3.60;2.90;;;;;;;7.60;57.05;99439.41;666706;29;1566;-86
2023/12/05 01:06:05;;;;;;;3.70;2.95;;;;;;;7.71;56.94;99449.13;666507;29;1479;-85
2023/12/05 01:06:27;;;;;;;4.13;2.90;;;;;;;7.62;57.09;99437.72;674474;29;1258;-87
2023/12/05 01:06:47;;;;;;;4.13;2.90;;;;;;;7.59;56.96;99431.59;671934;29;1323;-86
2023/12/05 01:07:12;;;;;;;3.58;2.67;;;;;;;7.67;56.92;99446.47;669244;29;1462;-87
2023/12/05 01:07:32;;;;;;;3.03;2.80;;;;;;;7.62;57.46;99437.72;666164;29;1479;-86
2023/12/05 01:07:53;;;;;;;2.80;2.60;;;;;;;7.68;57.19;99443.03;669618;29;882;-87
2023/12/05 01:08:14;;;;;;;3.05;2.75;;;;;;;7.68;57.02;99450.81;670396;29;1471;-86
2023/12/05 01:08:35;;;;;;;2.78;2.58;;;;;;;7.66;57.16;99447.34;671629;29;1525;-87
2023/12/05 01:08:56;;;;;;;3.08;2.78;;;;;;;7.62;57.21;99442.91;666647;29;1164;-87
2023/12/05 01:09:16;;;;;;;3.03;2.78;;;;;;;7.64;57.11;99436.06;669297;29;1459;-86
2023/12/05 01:09:37;;;;;;;3.05;2.75;;;;;;;7.65;57.21;99437.78;666759;29;1671;-86
2023/12/05 01:09:58;;;;;;;3.07;2.83;;;;;;;7.66;57.22;99436.94;672255;29;1291;-87
2023/12/05 01:10:18;;;;;;;3.50;3.20;;;;;;;7.63;57.35;99434.28;670044;29;1567;-85
2023/12/05 01:10:39;;;;;;;3.58;3.28;;;;;;;7.63;57.39;99438.63;669563;29;750;-86
2023/12/05 01:11:00;;;;;;;4.33;3.10;;;;;;;7.68;56.80;99440.44;664360;29;1308;-87
2023/12/05 01:11:22;;;;;;;3.60;2.60;;;;;;;7.70;56.88;99445.66;673449;29;1586;-87
2023/12/05 01:11:43;;;;;;;3.80;2.67;;;;;;;7.71;57.18;99446.53;674425;29;1475;-86
2023/12/05 01:12:05;;;;;;;3.13;2.80;;;;;;;7.65;57.33;99440.41;668969;29;1324;-87
2023/12/05 01:12:25;;;;;;;3.63;3.05;;;;;;;7.68;57.34;99437.00;669031;29;1489;-87
2023/12/05 01:12:53;;;;;;;3.60;3.00;;;;;;;7.65;56.98;99437.78;671711;29;721;-86
2023/12/05 01:13:14;;;;;;;4.20;2.70;;;;;;;7.61;56.96;99420.41;669180;29;1570;-86
2023/12/05 01:13:35;;;;;;;4.80;2.80;;;;;;;7.61;57.33;99430.78;671426;29;1277;-86
2023/12/05 01:13:55;;;;;;;5.10;2.83;;;;;;;7.63;57.32;99434.28;670303;29;1716;-86
2023/12/05 01:14:16;;;;;;;3.50;2.60;;;;;;;7.65;56.93;99437.78;671135;29;1492;-86
2023/12/05 01:14:37;;;;;;;2.85;2.55;;;;;;;7.73;57.17;99445.72;672027;29;1189;-87
2023/12/05 01:14:58;;;;;;;2.67;2.45;;;;;;;7.67;57.22;99440.41;671977;29;1915;-87
2023/12/05 01:15:22;;;;;;;3.05;2.75;;;;;;;7.72;57.44;99443.97;669002;29;1487;-87
2023/12/05 01:15:43;;;;;;;3.13;2.55;;;;;;;7.66;56.96;99428.28;672039;29;785;-87
2023/12/05 01:16:04;;;;;;;3.20;2.40;;;;;;;7.63;57.09;99426.47;671768;29;1382;-86
2023/12/05 01:16:25;;;;;;;3.45;2.60;;;;;;;7.69;56.93;99433.53;676734;29;1493;-86
2023/12/05 01:16:46;;;;;;;3.45;2.70;;;;;;;7.68;57.29;99437.84;671975;29;798;-86
2023/12/05 01:17:06;;;;;;;3.20;2.70;;;;;;;7.71;56.96;99430.94;672329;29;1692;-87
2023/12/05 01:17:27;;;;;;;3.20;2.80;;;;;;;7.65;57.36;99432.59;671203;29;1342;-87
2023/12/05 01:17:48;;;;;;;2.85;2.60;;;;;;;7.66;57.11;99433.47;669572;29;1077;-86
2023/12/05 01:18:11;;;;;;;2.70;2.50;;;;;;;7.61;56.71;99424.72;669083;29;1918;-86
2023/12/05 01:18:31;;;;;;;2.58;2.38;;;;;;;7.66;57.28;99434.34;666846;29;1056;-86
2023/12/05 01:18:52;;;;;;;2.60;2.40;;;;;;;7.64;57.25;99430.84;666151;29;1456;-87
2023/12/05 01:19:13;;;;;;;2.67;2.47;;;;;;;7.65;57.44;99440.41;665852;29;1639;-86
2023/12/05 01:19:35;;;;;;;2.63;2.42;;;;;;;7.68;57.01;99437.84;666928;29;1014;-87
2023/12/05 01:19:56;;;;;;;2.72;2.50;;;;;;;7.65;57.24;99432.59;669413;29;1061;-86
2023/12/05 01:20:16;;;;;;;3.28;2.80;;;;;;;7.70;57.07;99440.47;670213;29;1571;-86
2023/12/05 01:20:37;;;;;;;2.85;2.55;;;;;;;7.66;57.13;99436.94;669451;29;1248;-86
2023/12/05 01:20:58;;;;;;;3.05;2.75;;;;;;;7.60;57.27;99429.03;672010;29;1236;-87
2023/12/05 01:21:19;;;;;;;2.90;2.70;;;;;;;7.63;57.52;99436.88;668609;29;1576;-86
2023/12/05 01:21:40;;;;;;;3.38;2.85;;;;;;;7.66;56.97;99434.34;669423;29;1197;-86
2023/12/05 01:22:03;;;;;;;3.20;2.55;;;;;;;7.63;56.94;99430.81;666774;29;1198;-86
2023/12/05 01:22:23;;;;;;;3.22;2.70;;;;;;;7.64;57.30;99430.84;668974;29;1508;-86
2023/12/05 01:22:44;;;;;;;3.30;2.90;;;;;;;7.62;57.21;99423.88;669384;29;1718;-86
2023/12/05 01:23:04;;;;;;;3.10;2.80;;;;;;;7.61;57.27;99430.78;670334;29;1195;-86
2023/12/05 01:23:25;;;;;;;2.90;2.60;;;;;;;7.65;57.41;99427.41;679380;29;1282;-86
2023/12/05 01:23:46;;;;;;;2.75;2.47;;;;;;;7.69;57.09;99433.53;674302;29;1692;-86
2023/12/05 01:24:07;;;;;;;3.15;2.72;;;;;;;7.68;56.96;99437.00;669157;29;1483;-86
2023/12/05 01:24:28;;;;;;;3.40;2.80;;;;;;;7.65;57.10;99423.94;664276;29;1382;-86
2023/12/05 01:24:55;;;;;;;3.45;2.72;;;;;;;7.77;57.19;99441.44;669509;29;1087;-86
2023/12/05 01:25:16;;;;;;;3.90;2.76;;;;;;;7.68;57.50;99424.84;671633;29;1452;-87
2023/12/05 01:25:36;;;;;;;3.80;2.80;;;;;;;7.73;57.47;99429.28;671975;29;1100;-86
2023/12/05 01:25:57;;;;;;;3.00;2.50;;;;;;;7.75;57.46;99436.22;670616;29;1637;-86
2023/12/05 01:26:17;;;;;;;4.13;2.70;;;;;;;7.72;57.27;99433.59;664486;29;1442;-86
2023/12/05 01:26:38;;;;;;;3.72;2.53;;;;;;;7.76;57.13;99438.00;666984;29;922;-86
2023/12/05 01:26:59;;;;;;;5.70;2.90;;;;;;;7.69;56.74;99420.56;666825;29;1385;-86
2023/12/05 01:27:20;;;;;;;4.40;2.90;;;;;;;7.73;56.86;99437.91;668936;29;1561;-86
2023/12/05 01:27:41;;;;;;;4.78;3.03;;;;;;;7.69;57.29;99425.75;669237;29;844;-86
2023/12/05 01:28:02;;;;;;;3.33;2.88;;;;;;;7.67;57.24;99428.31;669313;29;1573;-87
2023/12/05 01:28:23;;;;;;;3.30;2.80;;;;;;;7.67;57.35;99422.22;669807;29;1569;-86
2023/12/05 01:28:44;;;;;;;3.60;2.80;;;;;;;7.68;57.11;99430.06;669291;29;1180;-87
2023/12/05 01:29:05;;;;;;;3.20;2.70;;;;;;;7.71;57.16;99425.75;669852;29;1200;-87
2023/12/05 01:29:25;;;;;;;3.28;2.75;;;;;;;7.72;57.01;99432.69;673151;29;1508;-86
2023/12/05 01:29:46;;;;;;;3.67;2.95;;;;;;;7.73;57.11;99429.28;666930;29;1334;-86
2023/12/05 01:30:08;;;;;;;4.20;3.10;;;;;;;7.75;57.50;99437.97;666502;29;1595;-86
2023/12/05 01:30:28;;;;;;;3.85;3.05;;;;;;;7.70;57.30;99430.09;669380;29;1368;-86
2023/12/05 01:30:49;;;;;;;3.70;3.00;;;;;;;7.67;57.44;99423.13;669505;29;1182;-86
2023/12/05 01:31:10;;;;;;;3.85;3.00;;;;;;;7.74;57.09;99431.03;672873;29;1601;-87
2023/12/05 01:31:31;;;;;;;3.33;2.70;;;;;;;7.74;57.19;99426.69;671859;29;1109;-86
2023/12/05 01:31:51;;;;;;;3.30;2.70;;;;;;;7.76;57.44;99431.91;671857;29;1110;-86
2023/12/05 01:32:12;;;;;;;2.60;2.40;;;;;;;7.72;57.37;99430.97;670758;29;1476;-86
2023/12/05 01:32:33;;;;;;;2.75;2.50;;;;;;;7.75;57.60;99433.63;671323;29;1303;-86
2023/12/05 01:32:54;;;;;;;2.67;2.47;;;;;;;7.75;57.21;99432.75;666859;29;1356;-86
2023/12/05 01:33:15;;;;;;;3.00;2.70;;;;;;;7.76;57.44;99432.81;665336;29;1441;-86
2023/12/05 01:33:36;;;;;;;3.80;3.10;;;;;;;7.80;57.22;99438.94;666924;29;995;-86
2023/12/05 01:33:57;;;;;;;4.07;3.15;;;;;;;7.77;57.22;99434.53;669513;29;1273;-86
2023/12/05 01:34:18;;;;;;;4.22;3.08;;;;;;;7.77;57.31;99425.88;673587;29;1470;-86
2023/12/05 01:34:38;;;;;;;3.97;2.87;;;;;;;7.77;57.05;99431.94;669475;29;1392;-87
2023/12/05 01:34:59;;;;;;;3.85;3.00;;;;;;;7.81;57.11;99427.69;666890;29;1976;-87
2023/12/05 01:35:20;;;;;;;4.30;3.20;;;;;;;7.80;57.41;99423.34;666678;29;1583;-86
2023/12/05 01:35:41;;;;;;;4.03;3.10;;;;;;;7.81;57.28;99430.28;666697;29;1214;-86
2023/12/05 01:36:07;;;;;;;3.33;2.75;;;;;;;7.75;57.36;99423.25;669352;29;1365;-86
2023/12/05 01:36:27;;;;;;;3.88;2.72;;;;;;;7.77;57.40;99428.47;671537;29;1623;-88
2023/12/05 01:36:48;;;;;;;4.07;2.70;;;;;;;7.83;57.39;99436.38;671524;29;1138;-86
2023/12/05 01:37:12;;;;;;;4.47;2.80;;;;;;;7.82;57.28;99432.03;666825;29;1562;-87
2023/12/05 01:37:33;;;;;;;3.55;2.75;;;;;;;7.80;57.42;99431.13;668783;29;1113;-86
2023/12/05 01:37:53;;;;;;;3.20;2.90;;;;;;;7.80;57.01;99433.72;669473;29;1197;-87
2023/12/05 01:38:14;;;;;;;3.05;2.75;;;;;;;7.80;57.15;99428.53;667785;29;1464;-86
2023/12/05 01:38:35;;;;;;;2.90;2.65;;;;;;;7.82;57.50;99427.69;669242;29;1232;-86
2023/12/05 01:38:56;;;;;;;3.10;2.70;;;;;;;7.81;57.19;99433.75;669392;29;1543;-87
2023/12/05 01:39:17;;;;;;;4.15;3.00;;;;;;;7.81;57.35;99427.69;670329;29;1253;-86
2023/12/05 01:39:37;;;;;;;5.17;3.00;;;;;;;7.81;57.14;99419.91;674665;29;1090;-86
2023/12/05 01:39:58;;;;;;;4.32;2.90;;;;;;;7.79;57.07;99426.75;674543;29;1329;-87
2023/12/05 01:40:18;;;;;;;3.88;2.80;;;;;;;7.77;57.51;99416.38;670502;29;1614;-87
2023/12/05 01:40:39;;;;;;;3.20;2.90;;;;;;;7.76;57.60;99417.22;672425;29;1188;-88
2023/12/05 01:41:00;;;;;;;3.50;2.78;;;;;;;7.80;57.35;99424.19;674820;29;1084;-87
2023/12/05 01:41:21;;;;;;;2.92;2.58;;;;;;;7.80;57.36;99431.13;674554;29;1443;-86
2023/12/05 01:41:42;;;;;;;2.92;2.63;;;;;;;7.81;57.21;99432.88;673622;29;824;-87
2023/12/05 01:42:03;;;;;;;3.13;2.83;;;;;;;7.79;57.21;99422.47;671952;29;1213;-87
2023/12/05 01:42:23;;;;;;;3.80;2.97;;;;;;;7.76;57.44;99414.63;671910;29;1495;-86
2023/12/05 01:42:44;;;;;;;4.43;2.83;;;;;;;7.79;57.23;99418.97;669705;29;797;-86
2023/12/05 01:43:05;;;;;;;4.60;2.83;;;;;;;7.86;57.38;99430.38;673597;29;1483;-86